Time;durP1;ratioP1;P1;durP2;ratioP2;P2;SDS_P1;SDS_P2;PMS_P1;PMS_P2;Temp;Humidity;BMP_temperature;BMP_pressure;BME280_temperature;BME280_humidity;BME280_pressure;Samples;Min_cycle;Max_cycle;Signal;HPM_P1;HPM_P2
2023/06/07 00:04:35;;;;;;;7.85;1.90;;;;;;;;;;21006579;28;20044;-64
2023/06/07 00:14:36;;;;;;;4.80;2.03;;;;;;;;;;21005522;28;20036;-65
2023/06/07 00:24:37;;;;;;;3.20;1.85;;;;;;;;;;21004765;28;20040;-65
2023/06/07 00:34:38;;;;;;;3.92;1.90;;;;;;;;;;21003887;28;20044;-64
2023/06/07 00:44:40;;;;;;;2.67;2.03;;;;;;;;;;21002458;28;20044;-64
2023/06/07 00:54:41;;;;;;;5.28;2.42;;;;;;;;;;21003026;28;20044;-63
2023/06/07 01:04:42;;;;;;;5.90;2.33;;;;;;;;;;21003813;28;20484;-64
2023/06/07 01:14:43;;;;;;;5.88;2.25;;;;;;;;;;21002611;28;20052;-64
2023/06/07 01:24:47;;;;;;;3.50;2.03;;;;;;;;;;21002150;28;20044;-64
2023/06/07 01:34:50;;;;;;;5.07;2.10;;;;;;;;;;20999101;28;20056;-64
2023/06/07 01:44:52;;;;;;;2.42;1.73;;;;;;;;;;21000880;28;20050;-64
2023/06/07 01:54:55;;;;;;;2.38;1.73;;;;;;;;;;20997215;28;20041;-64
2023/06/07 02:04:58;;;;;;;3.72;1.70;;;;;;;;;;20997693;28;20071;-64
2023/06/07 02:15:00;;;;;;;4.65;1.60;;;;;;;;;;20997189;28;20045;-64
2023/06/07 02:25:01;;;;;;;2.58;1.70;;;;;;;;;;20997383;28;20052;-64
2023/06/07 02:35:02;;;;;;;2.08;1.25;;;;;;;;;;20995365;28;20060;-65
2023/06/07 02:45:04;;;;;;;2.88;1.30;;;;;;;;;;20996357;28;20470;-64
2023/06/07 02:55:05;;;;;;;3.78;1.40;;;;;;;;;;20996225;28;20394;-64
2023/06/07 03:05:08;;;;;;;3.20;1.40;;;;;;;;;;21000133;28;20043;-63
2023/06/07 03:15:09;;;;;;;5.20;1.45;;;;;;;;;;21013201;28;20044;-64
2023/06/07 03:25:10;;;;;;;4.32;1.30;;;;;;;;;;21010937;28;20048;-64
2023/06/07 03:35:11;;;;;;;3.97;1.65;;;;;;;;;;21010246;28;20053;-63
2023/06/07 03:45:12;;;;;;;2.22;1.55;;;;;;;;;;21010809;28;20037;-64
2023/06/07 03:55:13;;;;;;;4.22;1.70;;;;;;;;;;21010088;28;20048;-64
2023/06/07 04:05:15;;;;;;;4.00;2.03;;;;;;;;;;21009259;28;20132;-63
2023/06/07 04:15:16;;;;;;;5.28;2.08;;;;;;;;;;21007542;28;20083;-64
2023/06/07 04:25:17;;;;;;;3.28;1.85;;;;;;;;;;21006983;28;20052;-64
2023/06/07 04:35:19;;;;;;;5.03;2.40;;;;;;;;;;21005613;28;20094;-64
2023/06/07 04:45:28;;;;;;;4.78;2.28;;;;;;;;;;21006479;28;20513;-64
2023/06/07 04:55:30;;;;;;;6.28;2.22;;;;;;;;;;21005573;28;20532;-63
2023/06/07 05:05:31;;;;;;;4.30;2.00;;;;;;;;;;21004780;28;20062;-63
2023/06/07 05:15:33;;;;;;;3.67;2.10;;;;;;;;;;21003844;28;20040;-64
2023/06/07 05:25:34;;;;;;;5.07;2.97;;;;;;;;;;21001775;28;20130;-64
2023/06/07 05:35:35;;;;;;;4.45;2.83;;;;;;;;;;21000110;28;20528;-63
2023/06/07 05:45:36;;;;;;;5.32;2.50;;;;;;;;;;20999850;28;20047;-62
2023/06/07 05:55:37;;;;;;;4.13;2.50;;;;;;;;;;21000005;28;20397;-62
2023/06/07 06:05:39;;;;;;;3.28;2.45;;;;;;;;;;20998801;28;20090;-62
2023/06/07 06:15:40;;;;;;;4.78;2.50;;;;;;;;;;20998086;28;20044;-62
2023/06/07 06:25:41;;;;;;;4.65;2.90;;;;;;;;;;20995876;28;20049;-62
2023/06/07 06:35:42;;;;;;;3.33;2.42;;;;;;;;;;20997945;28;20048;-63
2023/06/07 06:45:44;;;;;;;5.18;2.85;;;;;;;;;;20996412;28;20482;-62
2023/06/07 06:55:45;;;;;;;7.78;3.30;;;;;;;;;;20996624;28;20578;-62
2023/06/07 07:05:46;;;;;;;5.38;3.22;;;;;;;;;;20995767;28;20113;-63
2023/06/07 07:15:47;;;;;;;7.90;3.53;;;;;;;;;;20995117;28;20504;-63
2023/06/07 07:25:48;;;;;;;7.47;3.47;;;;;;;;;;20994174;28;20512;-62
2023/06/07 07:35:51;;;;;;;7.15;3.85;;;;;;;;;;20994667;28;20041;-62
2023/06/07 07:45:52;;;;;;;7.82;4.20;;;;;;;;;;20995241;28;20048;-62
2023/06/07 07:55:53;;;;;;;6.88;2.55;;;;;;;;;;21005089;28;20490;-68
2023/06/07 08:05:54;;;;;;;8.48;3.47;;;;;;;;;;21007209;28;20036;-66
2023/06/07 08:15:55;;;;;;;9.25;3.90;;;;;;;;;;21005503;28;20117;-64
2023/06/07 08:26:00;;;;;;;9.00;4.03;;;;;;;;;;21006452;28;20052;-62
2023/06/07 08:36:01;;;;;;;9.20;3.67;;;;;;;;;;21005096;28;20044;-63
2023/06/07 08:46:05;;;;;;;6.55;4.50;;;;;;;;;;21003862;28;20040;-63
2023/06/07 08:56:07;;;;;;;11.02;5.18;;;;;;;;;;21004469;28;20539;-62
2023/06/07 09:06:08;;;;;;;6.82;3.83;;;;;;;;;;21003139;28;20454;-65
2023/06/07 09:16:13;;;;;;;6.88;4.03;;;;;;;;;;21001725;28;20044;-62
2023/06/07 09:26:15;;;;;;;13.20;4.82;;;;;;;;;;21004191;28;20084;-63
2023/06/07 09:36:17;;;;;;;11.43;5.30;;;;;;;;;;21001698;28;20053;-62
2023/06/07 09:46:21;;;;;;;9.55;4.78;;;;;;;;;;21000138;28;20080;-60
2023/06/07 09:56:23;;;;;;;8.57;5.03;;;;;;;;;;20999669;28;20041;-62
2023/06/07 10:06:24;;;;;;;13.13;5.55;;;;;;;;;;20998387;28;20040;-65
2023/06/07 10:16:27;;;;;;;9.73;6.53;;;;;;;;;;20998869;28;20473;-61
2023/06/07 10:26:31;;;;;;;6.35;5.32;;;;;;;;;;20997689;28;20532;-60
2023/06/07 10:36:33;;;;;;;8.30;5.03;;;;;;;;;;20997676;28;20080;-61
2023/06/07 10:46:34;;;;;;;8.32;5.13;;;;;;;;;;20995675;28;20067;-61
2023/06/07 10:56:36;;;;;;;7.50;5.32;;;;;;;;;;20996629;28;20045;-61
2023/06/07 11:06:57;;;;;;;6.97;5.82;;;;;;;;;;20996205;28;20493;-61
2023/06/07 11:16:58;;;;;;;11.90;7.45;;;;;;;;;;20995164;28;20036;-61
2023/06/07 11:27:00;;;;;;;7.75;4.38;;;;;;;;;;20999283;28;20044;-62
2023/06/07 11:37:11;;;;;;;8.40;6.30;;;;;;;;;;21008993;28;20048;-61
2023/06/07 11:47:12;;;;;;;11.02;6.82;;;;;;;;;;21007281;28;20052;-62
2023/06/07 11:57:13;;;;;;;19.67;12.63;;;;;;;;;;21007921;28;20056;-63
2023/06/07 12:07:21;;;;;;;8.75;7.07;;;;;;;;;;21008001;28;20397;-62
2023/06/07 12:17:22;;;;;;;6.15;4.05;;;;;;;;;;21007222;28;20119;-62
2023/06/07 12:27:23;;;;;;;7.20;3.63;;;;;;;;;;21006567;28;20059;-63
2023/06/07 12:37:24;;;;;;;9.27;3.50;;;;;;;;;;21003703;28;20044;-62
2023/06/07 12:47:25;;;;;;;8.10;3.85;;;;;;;;;;21005175;28;20044;-64
2023/06/07 12:57:27;;;;;;;4.22;3.15;;;;;;;;;;21003492;28;20041;-63
2023/06/07 13:07:28;;;;;;;7.50;3.25;;;;;;;;;;21003670;28;20072;-63
2023/06/07 13:17:29;;;;;;;3.83;2.83;;;;;;;;;;21003374;28;20390;-62
2023/06/07 13:27:30;;;;;;;5.68;3.47;;;;;;;;;;21002366;28;20049;-63
2023/06/07 13:37:31;;;;;;;7.55;4.50;;;;;;;;;;21001871;28;20402;-62
2023/06/07 13:47:33;;;;;;;6.35;3.88;;;;;;;;;;21001077;28;20129;-62
2023/06/07 13:57:35;;;;;;;10.20;5.00;;;;;;;;;;20999278;28;20215;-61
2023/06/07 14:07:36;;;;;;;7.75;5.47;;;;;;;;;;20999164;28;20048;-62
2023/06/07 14:17:37;;;;;;;7.20;3.95;;;;;;;;;;20998564;28;20094;-62
2023/06/07 14:27:39;;;;;;;5.05;2.78;;;;;;;;;;20996116;28;20127;-63
2023/06/07 14:37:40;;;;;;;6.88;4.07;;;;;;;;;;20997552;28;20044;-62
2023/06/07 14:47:41;;;;;;;5.75;3.15;;;;;;;;;;20995640;28;20127;-61
2023/06/07 14:57:42;;;;;;;8.13;3.10;;;;;;;;;;20995203;28;20127;-63
2023/06/07 15:07:43;;;;;;;6.28;3.13;;;;;;;;;;20995640;28;20445;-63
2023/06/07 15:17:45;;;;;;;7.95;3.53;;;;;;;;;;20995650;28;20509;-62
2023/06/07 15:27:46;;;;;;;7.82;2.78;;;;;;;;;;20994785;28;20055;-63
2023/06/07 15:37:47;;;;;;;5.95;3.33;;;;;;;;;;20993098;28;20055;-62
2023/06/07 15:48:01;;;;;;;7.55;3.63;;;;;;;;;;20994665;28;20496;-63
2023/06/07 15:58:02;;;;;;;6.03;3.90;;;;;;;;;;20993371;28;20477;-62
2023/06/07 16:08:03;;;;;;;5.40;3.40;;;;;;;;;;20993076;28;20113;-62
2023/06/07 16:18:05;;;;;;;5.45;3.08;;;;;;;;;;21003545;28;20041;-63
2023/06/07 16:28:06;;;;;;;5.55;2.13;;;;;;;;;;21006316;28;20053;-62
2023/06/07 16:38:07;;;;;;;5.30;3.05;;;;;;;;;;21006136;28;20094;-62
2023/06/07 16:48:08;;;;;;;6.30;2.40;;;;;;;;;;21005753;28;20045;-63
2023/06/07 16:58:10;;;;;;;8.40;3.97;;;;;;;;;;21005228;28;20040;-63
2023/06/07 17:08:13;;;;;;;5.43;2.67;;;;;;;;;;21004085;28;20048;-63
2023/06/07 17:18:14;;;;;;;4.57;1.88;;;;;;;;;;21003055;28;20059;-64
2023/06/07 17:28:15;;;;;;;5.53;1.75;;;;;;;;;;21001484;28;20489;-63
2023/06/07 17:38:16;;;;;;;5.90;2.10;;;;;;;;;;21001497;28;20545;-65
2023/06/07 17:48:17;;;;;;;3.75;2.05;;;;;;;;;;21001036;28;20082;-64
2023/06/07 17:58:18;;;;;;;5.35;4.00;;;;;;;;;;21000207;28;20052;-64
2023/06/07 18:08:21;;;;;;;6.35;2.65;;;;;;;;;;20999315;28;20052;-64
2023/06/07 18:18:24;;;;;;;4.70;2.50;;;;;;;;;;20998985;28;20049;-65
2023/06/07 18:28:25;;;;;;;7.70;3.50;;;;;;;;;;20997072;28;20048;-63
2023/06/07 18:38:26;;;;;;;5.15;4.05;;;;;;;;;;20996858;28;20044;-63
2023/06/07 18:48:27;;;;;;;5.65;2.40;;;;;;;;;;20997238;28;20045;-63
2023/06/07 18:58:28;;;;;;;6.95;2.60;;;;;;;;;;20997686;28;20044;-63
2023/06/07 19:08:29;;;;;;;2.90;1.88;;;;;;;;;;20996654;28;20052;-63
2023/06/07 19:18:30;;;;;;;4.25;2.60;;;;;;;;;;20996113;28;20044;-63
2023/06/07 19:28:33;;;;;;;5.75;3.03;;;;;;;;;;20995802;28;20052;-63
2023/06/07 19:38:34;;;;;;;4.00;2.90;;;;;;;;;;20994898;28;20147;-63
2023/06/07 19:48:39;;;;;;;4.13;3.13;;;;;;;;;;20999370;28;20481;-63
2023/06/07 19:58:40;;;;;;;9.23;3.28;;;;;;;;;;21008592;28;20485;-66
2023/06/07 20:08:41;;;;;;;6.35;3.78;;;;;;;;;;21007846;28;20524;-65
2023/06/07 20:18:42;;;;;;;6.30;3.70;;;;;;;;;;21006193;28;20044;-65
2023/06/07 20:28:43;;;;;;;8.23;4.85;;;;;;;;;;21005785;28;20064;-65
2023/06/07 20:38:45;;;;;;;9.45;4.90;;;;;;;;;;21004612;28;20048;-65
2023/06/07 20:48:46;;;;;;;9.02;5.13;;;;;;;;;;21004354;28;20500;-66
2023/06/07 20:58:47;;;;;;;8.05;5.07;;;;;;;;;;21001578;28;20044;-65
2023/06/07 21:08:48;;;;;;;8.43;4.22;;;;;;;;;;21002174;28;20098;-66
2023/06/07 21:18:50;;;;;;;8.82;5.25;;;;;;;;;;21000500;28;20052;-65
2023/06/07 21:28:52;;;;;;;7.18;4.18;;;;;;;;;;21001430;28;20087;-65
2023/06/07 21:38:53;;;;;;;6.78;4.22;;;;;;;;;;20999304;28;20505;-65
2023/06/07 21:48:55;;;;;;;10.07;4.07;;;;;;;;;;20999054;28;20051;-65
2023/06/07 21:58:56;;;;;;;5.45;3.00;;;;;;;;;;20997116;28;20043;-66
2023/06/07 22:08:57;;;;;;;5.22;3.97;;;;;;;;;;20997660;28;20044;-65
2023/06/07 22:18:59;;;;;;;6.05;3.47;;;;;;;;;;20996749;28;20048;-65
2023/06/07 22:29:01;;;;;;;8.43;3.40;;;;;;;;;;20996039;28;20063;-65
2023/06/07 22:39:02;;;;;;;4.25;2.60;;;;;;;;;;20997058;28;20052;-64
2023/06/07 22:49:03;;;;;;;6.80;3.20;;;;;;;;;;20996522;28;20103;-65
2023/06/07 22:59:05;;;;;;;4.88;2.88;;;;;;;;;;20995907;28;20051;-65
2023/06/07 23:09:06;;;;;;;4.35;2.28;;;;;;;;;;20995559;28;20052;-65
2023/06/07 23:19:07;;;;;;;3.90;2.72;;;;;;;;;;20995191;28;20052;-65
2023/06/07 23:29:08;;;;;;;4.60;2.60;;;;;;;;;;21009892;28;20454;-65
2023/06/07 23:39:09;;;;;;;8.93;3.42;;;;;;;;;;21011205;28;20045;-65
2023/06/07 23:49:12;;;;;;;6.25;3.20;;;;;;;;;;21010740;28;20087;-65
2023/06/07 23:59:13;;;;;;;5.80;3.08;;;;;;;;;;21010668;28;20048;-66
